Time;durP1;ratioP1;P1;durP2;ratioP2;P2;SDS_P1;SDS_P2;PMS_P1;PMS_P2;Temp;Humidity;BMP_temperature;BMP_pressure;BME280_temperature;BME280_humidity;BME280_pressure;Samples;Min_cycle;Max_cycle;Signal;HPM_P1;HPM_P2
2023/05/25 00:00:20;;;;;;;22.67;8.30;;;;;;;9.14;100.00;102403.50;4931344;28;1082004;-65
2023/05/25 00:02:46;;;;;;;24.85;8.63;;;;;;;9.10;100.00;102393.69;5001553;28;20061;-66
2023/05/25 00:05:12;;;;;;;22.35;8.50;;;;;;;9.13;100.00;102391.16;4999328;28;20030;-63
2023/05/25 00:07:38;;;;;;;23.23;8.27;;;;;;;9.06;100.00;102405.88;4984412;28;20025;-64
2023/05/25 00:10:05;;;;;;;23.50;8.63;;;;;;;9.03;100.00;102395.22;5002509;28;20084;-64
2023/05/25 00:12:30;;;;;;;24.35;8.10;;;;;;;8.97;100.00;102401.19;5002332;28;20030;-63
2023/05/25 00:14:56;;;;;;;22.35;8.60;;;;;;;9.01;100.00;102400.44;5001326;28;20037;-64
2023/05/25 00:17:22;;;;;;;24.08;8.63;;;;;;;8.98;100.00;102396.78;5002982;28;20523;-63
2023/05/25 00:19:48;;;;;;;25.50;8.90;;;;;;;8.96;100.00;102402.00;4966916;28;20038;-63
2023/05/25 00:22:14;;;;;;;24.63;8.75;;;;;;;8.93;100.00;102399.25;5002476;28;20026;-64
2023/05/25 00:24:39;;;;;;;23.40;8.65;;;;;;;8.97;100.00;102401.19;5000832;28;20066;-64
2023/05/25 00:27:08;;;;;;;22.33;8.00;;;;;;;8.85;100.00;102404.28;5002439;28;20529;-63
2023/05/25 00:29:34;;;;;;;24.00;8.70;;;;;;;8.80;100.00;102397.91;5001139;28;20077;-63
2023/05/25 00:32:00;;;;;;;23.02;8.32;;;;;;;8.79;100.00;102389.94;5001396;28;20129;-63
2023/05/25 00:34:25;;;;;;;22.92;8.70;;;;;;;8.78;100.00;102403.97;5002600;28;20121;-63
2023/05/25 00:36:51;;;;;;;24.13;8.38;;;;;;;8.73;100.00;102396.78;5001841;28;20485;-63
2023/05/25 00:39:18;;;;;;;22.67;8.32;;;;;;;8.71;100.00;102402.88;5000954;28;20019;-65
2023/05/25 00:41:45;;;;;;;22.17;7.95;;;;;;;8.64;100.00;102407.00;5000592;28;20113;-63
2023/05/25 00:44:13;;;;;;;22.48;8.30;;;;;;;8.62;100.00;102407.78;5002704;28;20095;-63
2023/05/25 00:46:51;;;;;;;21.95;8.10;;;;;;;8.60;100.00;102412.09;5001195;28;20030;-63
2023/05/25 00:49:20;;;;;;;22.98;8.32;;;;;;;8.59;100.00;102407.66;5001966;28;20034;-64
2023/05/25 00:51:46;;;;;;;22.83;8.70;;;;;;;8.61;100.00;102409.53;5002976;28;20025;-64
2023/05/25 00:54:36;;;;;;;23.95;8.50;;;;;;;8.62;100.00;102398.16;5001867;28;20037;-64
2023/05/25 00:57:03;;;;;;;23.75;8.40;;;;;;;8.58;100.00;102406.78;5001439;28;20117;-64
2023/05/25 00:59:40;;;;;;;22.88;8.00;;;;;;;8.54;100.00;102411.03;5001244;28;20047;-63
2023/05/25 01:02:12;;;;;;;22.58;8.05;;;;;;;8.48;100.00;102413.44;5001531;28;20022;-64
2023/05/25 01:04:43;;;;;;;21.83;8.00;;;;;;;8.49;100.00;102406.41;5001044;28;20033;-64
2023/05/25 01:07:11;;;;;;;23.70;8.40;;;;;;;8.41;100.00;102408.75;5001051;28;20033;-63
2023/05/25 01:09:43;;;;;;;20.67;8.00;;;;;;;8.41;100.00;102408.75;5000841;28;20033;-63
2023/05/25 01:12:10;;;;;;;21.75;7.85;;;;;;;8.30;100.00;102410.97;4983872;28;20030;-64
2023/05/25 01:14:41;;;;;;;21.02;7.72;;;;;;;8.21;100.00;102410.59;5002290;28;20031;-63
2023/05/25 01:17:07;;;;;;;21.98;7.75;;;;;;;8.19;100.00;102412.28;5001248;28;20030;-63
2023/05/25 01:19:36;;;;;;;21.40;7.88;;;;;;;8.11;100.00;102408.44;5003837;28;20026;-63
2023/05/25 01:22:18;;;;;;;23.40;8.15;;;;;;;8.05;100.00;102408.22;5005047;28;20026;-64
2023/05/25 01:24:44;;;;;;;;;;;;;;;8.07;100.00;102414.41;5005147;28;20045;-72
2023/05/25 01:27:18;;;;;;;22.13;7.90;;;;;;;8.00;100.00;102427.34;5004761;28;19917;-64
2023/05/25 01:29:46;;;;;;;22.80;8.05;;;;;;;7.93;100.00;102425.31;5005027;28;20030;-65
2023/05/25 01:32:13;;;;;;;21.02;8.02;;;;;;;7.88;100.00;102426.88;5004273;28;20065;-64
2023/05/25 01:34:40;;;;;;;22.40;8.13;;;;;;;7.85;100.00;102426.75;5005343;28;20034;-63
2023/05/25 01:37:05;;;;;;;22.05;8.02;;;;;;;7.90;100.00;102427.81;5003890;28;20065;-64
2023/05/25 01:39:31;;;;;;;22.52;8.43;;;;;;;7.91;100.00;102432.25;5004497;28;20065;-65
2023/05/25 01:41:56;;;;;;;22.05;7.78;;;;;;;7.99;100.00;102436.13;4986423;28;20486;-64
2023/05/25 01:44:22;;;;;;;22.58;8.75;;;;;;;7.94;100.00;102424.47;5004866;28;20131;-64
2023/05/25 01:46:53;;;;;;;23.80;8.65;;;;;;;7.98;100.00;102426.41;5003715;28;20041;-65
2023/05/25 01:49:32;;;;;;;22.98;7.97;;;;;;;7.99;100.00;102435.19;5004504;28;20022;-67
2023/05/25 01:52:16;;;;;;;25.27;8.40;;;;;;;7.93;100.00;102434.97;5005083;28;20031;-65
2023/05/25 01:54:46;;;;;;;21.75;7.72;;;;;;;7.91;100.00;102434.91;5003318;28;20040;-66
2023/05/25 01:57:16;;;;;;;22.98;7.95;;;;;;;7.84;100.00;102436.38;5003927;28;20544;-65
2023/05/25 01:59:44;;;;;;;24.73;8.00;;;;;;;7.84;100.00;102435.47;5003601;28;20567;-66
2023/05/25 02:02:12;;;;;;;22.55;8.10;;;;;;;7.85;100.00;102442.56;5004232;28;20484;-65
2023/05/25 02:04:38;;;;;;;22.35;8.27;;;;;;;7.84;100.00;102443.38;5001424;28;20033;-66
2023/05/25 02:07:04;;;;;;;24.42;9.00;;;;;;;7.84;100.00;102439.00;5003864;28;20046;-66
2023/05/25 02:09:29;;;;;;;23.38;8.65;;;;;;;7.79;100.00;102437.94;5004858;28;20033;-65
2023/05/25 02:11:55;;;;;;;22.95;8.45;;;;;;;7.74;100.00;102443.84;5004970;28;20121;-65
2023/05/25 02:14:20;;;;;;;23.42;8.38;;;;;;;7.72;100.00;102437.59;5002961;28;20034;-66
2023/05/25 02:16:45;;;;;;;23.98;8.40;;;;;;;7.61;100.00;102432.78;5006856;28;20487;-65
2023/05/25 02:19:13;;;;;;;22.30;8.50;;;;;;;7.58;100.00;102435.28;5003342;28;20527;-66
2023/05/25 02:21:40;;;;;;;23.52;9.30;;;;;;;7.54;100.00;102435.09;5003469;28;20034;-65
2023/05/25 02:24:05;;;;;;;21.55;8.25;;;;;;;7.49;100.00;102432.28;5002470;28;20104;-66
2023/05/25 02:26:30;;;;;;;23.10;8.25;;;;;;;7.54;100.00;102435.09;5002644;28;20545;-66
2023/05/25 02:28:56;;;;;;;21.95;8.95;;;;;;;7.52;100.00;102431.53;5003713;28;20033;-73
2023/05/25 02:31:21;;;;;;;21.10;7.97;;;;;;;7.47;100.00;102431.28;5003681;28;20030;-65
2023/05/25 02:33:46;;;;;;;21.83;8.35;;;;;;;7.39;100.00;102436.25;4985735;28;20065;-65
2023/05/25 02:36:12;;;;;;;21.98;8.05;;;;;;;7.28;100.00;102434.88;5003379;28;20121;-65
2023/05/25 02:38:37;;;;;;;22.30;8.25;;;;;;;7.20;100.00;102431.03;5004181;28;20029;-65
2023/05/25 02:41:02;;;;;;;22.00;8.80;;;;;;;7.10;100.00;102433.25;5000396;28;20036;-65
2023/05/25 02:43:28;;;;;;;22.73;8.52;;;;;;;7.04;100.00;102434.72;5003623;28;20066;-65
2023/05/25 02:45:53;;;;;;;22.10;8.88;;;;;;;7.00;100.00;102440.69;5005383;28;20042;-65
2023/05/25 02:48:20;;;;;;;22.40;9.18;;;;;;;6.96;100.00;102443.16;5003588;28;20106;-64
2023/05/25 02:50:45;;;;;;;23.35;8.73;;;;;;;7.01;100.00;102439.84;4986302;28;20034;-65
2023/05/25 02:53:11;;;;;;;22.23;9.02;;;;;;;7.05;100.00;102444.38;5001678;28;20110;-65
2023/05/25 02:55:39;;;;;;;23.40;9.88;;;;;;;6.98;100.00;102437.97;5001515;28;20027;-65
2023/05/25 02:58:04;;;;;;;23.08;9.68;;;;;;;6.96;100.00;102444.88;5003091;28;20485;-65
2023/05/25 03:00:30;;;;;;;23.15;9.55;;;;;;;6.97;100.00;102442.34;4985494;28;20054;-74
2023/05/25 03:02:56;;;;;;;24.52;10.00;;;;;;;6.93;100.00;102435.16;5002732;28;20022;-73
2023/05/25 03:05:21;;;;;;;23.35;10.20;;;;;;;6.96;100.00;102431.72;4985502;28;20034;-73
2023/05/25 03:07:46;;;;;;;24.05;10.15;;;;;;;6.95;100.00;102436.09;4986059;28;20513;-71
2023/05/25 03:10:12;;;;;;;24.25;10.38;;;;;;;6.93;100.00;102445.66;5003892;28;20096;-74
2023/05/25 03:12:37;;;;;;;23.20;10.73;;;;;;;6.86;100.00;102445.28;5003164;28;20113;-73
2023/05/25 03:15:03;;;;;;;25.58;11.25;;;;;;;6.76;100.00;102452.78;5000869;28;20053;-71
2023/05/25 03:17:29;;;;;;;23.27;11.23;;;;;;;6.68;100.00;102454.16;5004029;28;20382;-72
2023/05/25 03:19:54;;;;;;;23.67;10.88;;;;;;;6.61;100.00;102455.63;5003425;28;20022;-73
2023/05/25 03:22:20;;;;;;;24.10;11.50;;;;;;;6.59;100.00;102454.63;5003439;28;20077;-72
2023/05/25 03:24:45;;;;;;;24.50;11.55;;;;;;;6.61;100.00;102458.25;5003395;28;20396;-71
2023/05/25 03:27:10;;;;;;;24.25;11.25;;;;;;;6.66;100.00;102462.81;5002460;28;20116;-72
2023/05/25 03:29:36;;;;;;;23.35;11.40;;;;;;;6.55;100.00;102468.47;5001076;28;20030;-74
2023/05/25 03:32:01;;;;;;;22.80;11.43;;;;;;;6.51;100.00;102463.91;5002229;28;20575;-69
2023/05/25 03:34:28;;;;;;;24.17;12.23;;;;;;;6.44;100.00;102474.94;5002276;28;20030;-71
2023/05/25 03:36:54;;;;;;;25.20;13.27;;;;;;;6.47;100.00;102477.72;5001406;28;20069;-72
2023/05/25 03:39:21;;;;;;;25.25;13.15;;;;;;;6.45;100.00;102479.34;5002891;28;20046;-71
2023/05/25 03:41:46;;;;;;;26.60;14.13;;;;;;;6.50;100.00;102480.47;5001800;28;20030;-71
2023/05/25 03:44:12;;;;;;;26.15;14.65;;;;;;;6.57;100.00;102487.81;5000504;28;20030;-74
2023/05/25 03:46:37;;;;;;;27.05;15.60;;;;;;;6.61;100.00;102483.59;5002866;28;20034;-72
2023/05/25 03:49:03;;;;;;;31.23;17.02;;;;;;;6.66;100.00;102483.84;5002210;28;20474;-72
2023/05/25 03:51:28;;;;;;;30.70;18.25;;;;;;;6.79;100.00;102489.72;5001835;28;20077;-67
2023/05/25 03:53:54;;;;;;;31.15;18.38;;;;;;;6.82;100.00;102491.59;5003418;28;20501;-72
2023/05/25 03:56:20;;;;;;;28.83;17.95;;;;;;;6.87;100.00;102494.44;5000482;28;20047;-69
2023/05/25 03:58:45;;;;;;;28.88;17.88;;;;;;;6.89;100.00;102490.16;5002417;28;20033;-66
2023/05/25 04:01:12;;;;;;;29.58;17.63;;;;;;;6.95;100.00;102504.47;5002518;28;20408;-68
2023/05/25 04:03:37;;;;;;;29.55;17.55;;;;;;;6.98;100.00;102501.97;5002038;28;20536;-66
2023/05/25 04:06:03;;;;;;;30.00;17.30;;;;;;;7.00;100.00;102498.53;4999998;28;20106;-64
2023/05/25 04:08:28;;;;;;;28.60;16.83;;;;;;;7.02;100.00;102504.75;5002687;28;20181;-65
2023/05/25 04:10:54;;;;;;;27.10;16.52;;;;;;;7.02;100.00;102503.03;5002596;28;20369;-65
2023/05/25 04:13:20;;;;;;;28.27;16.73;;;;;;;7.08;100.00;102499.78;5002703;28;20120;-64
2023/05/25 04:15:45;;;;;;;27.17;15.85;;;;;;;7.05;100.00;102502.25;5001588;28;20403;-65
2023/05/25 04:18:11;;;;;;;29.00;16.42;;;;;;;7.08;100.00;102498.03;5002636;28;20068;-65
2023/05/25 04:20:36;;;;;;;27.10;15.32;;;;;;;7.13;100.00;102501.75;5001864;28;20034;-64
2023/05/25 04:23:01;;;;;;;26.30;15.18;;;;;;;7.17;100.00;102508.06;5001556;28;20109;-65
2023/05/25 04:25:27;;;;;;;28.92;15.40;;;;;;;7.17;100.00;102508.06;5002977;28;20061;-66
2023/05/25 04:27:52;;;;;;;26.27;15.10;;;;;;;7.19;100.00;102506.41;5000506;28;20502;-65
2023/05/25 04:30:18;;;;;;;28.02;14.38;;;;;;;7.23;100.00;102508.34;5002635;28;20037;-65
2023/05/25 04:32:44;;;;;;;27.40;14.85;;;;;;;7.25;100.00;102511.94;5001897;28;20108;-66
2023/05/25 04:35:10;;;;;;;26.75;14.32;;;;;;;7.29;100.00;102510.34;5000641;28;20509;-65
2023/05/25 04:37:35;;;;;;;26.90;14.35;;;;;;;7.35;100.00;102520.25;5001918;28;20034;-66
2023/05/25 04:40:05;;;;;;;26.88;14.23;;;;;;;7.35;100.00;102517.63;5002064;28;20041;-65
2023/05/25 04:42:31;;;;;;;27.90;14.68;;;;;;;7.37;100.00;102510.66;5001885;28;20088;-65
2023/05/25 04:44:57;;;;;;;27.17;14.32;;;;;;;7.39;100.00;102514.28;4984486;28;20469;-65
2023/05/25 04:47:23;;;;;;;24.52;13.60;;;;;;;7.44;100.00;102518.00;5003110;28;20040;-66
2023/05/25 04:49:49;;;;;;;25.88;13.23;;;;;;;7.54;100.00;102509.69;4985161;28;20022;-65
2023/05/25 04:52:14;;;;;;;29.20;13.50;;;;;;;7.59;100.00;102518.69;5001436;28;20041;-65
2023/05/25 04:54:40;;;;;;;25.73;12.50;;;;;;;7.63;100.00;102518.00;5005228;28;20126;-64
2023/05/25 04:57:06;;;;;;;26.92;13.02;;;;;;;7.63;100.00;102519.69;5006005;28;20040;-66
2023/05/25 04:59:31;;;;;;;25.52;13.02;;;;;;;7.63;100.00;102515.34;5006320;28;20158;-70
2023/05/25 05:01:56;;;;;;;26.30;12.63;;;;;;;7.74;100.00;102526.34;5005834;28;20034;-64
2023/05/25 05:04:22;;;;;;;26.38;12.35;;;;;;;7.84;100.00;102522.38;5004547;28;20674;-65
2023/05/25 05:06:47;;;;;;;25.85;12.20;;;;;;;7.87;100.00;102533.03;5004728;28;20088;-66
2023/05/25 05:09:13;;;;;;;27.75;12.20;;;;;;;7.94;100.00;102528.94;5004789;28;20022;-65
2023/05/25 05:11:38;;;;;;;26.60;12.70;;;;;;;7.98;100.00;102533.47;5004900;28;20030;-65
2023/05/25 05:14:04;;;;;;;26.75;12.45;;;;;;;8.04;100.00;102528.47;5005106;28;20026;-72
2023/05/25 05:16:33;;;;;;;25.48;12.35;;;;;;;8.11;100.00;102526.97;5004588;28;20782;-65
2023/05/25 05:19:00;;;;;;;25.05;12.48;;;;;;;8.15;100.00;102528.91;5005543;28;20044;-67
2023/05/25 05:21:25;;;;;;;26.45;12.25;;;;;;;8.20;100.00;102530.00;5005004;28;20025;-64
2023/05/25 05:23:51;;;;;;;24.63;12.27;;;;;;;8.25;100.00;102525.81;5005483;28;20108;-63
2023/05/25 05:26:16;;;;;;;25.77;12.48;;;;;;;8.36;100.00;102529.78;4987495;28;20492;-66
2023/05/25 05:28:42;;;;;;;24.75;11.95;;;;;;;8.46;100.00;102538.09;5003160;28;20441;-66
2023/05/25 05:31:07;;;;;;;26.88;11.65;;;;;;;8.49;100.00;102538.19;5004694;28;20068;-64
2023/05/25 05:33:32;;;;;;;25.33;11.35;;;;;;;8.57;100.00;102542.06;5004259;28;20054;-66
2023/05/25 05:35:58;;;;;;;25.40;10.88;;;;;;;8.68;100.00;102556.56;5006446;28;20054;-64
2023/05/25 05:38:24;;;;;;;24.48;11.40;;;;;;;8.75;100.00;102556.78;5004382;28;20038;-66
2023/05/25 05:40:50;;;;;;;25.65;10.93;;;;;;;8.85;100.00;102554.59;5006921;28;20026;-65
2023/05/25 05:43:15;;;;;;;24.60;11.57;;;;;;;8.96;100.00;102557.63;5005138;28;20113;-66
2023/05/25 05:45:41;;;;;;;23.23;10.30;;;;;;;8.98;100.00;102558.56;5004059;28;20404;-66
2023/05/25 05:48:09;;;;;;;23.85;10.70;;;;;;;9.03;100.00;102559.66;5002578;28;21380;-66
2023/05/25 05:50:38;;;;;;;24.30;10.30;;;;;;;9.10;100.00;102568.72;4999399;28;20022;-66
2023/05/25 05:53:05;;;;;;;24.80;10.35;;;;;;;9.18;100.00;102564.63;5003768;28;20085;-66
2023/05/25 05:55:30;;;;;;;23.48;10.40;;;;;;;9.25;100.00;102576.31;5003152;28;20113;-70
2023/05/25 05:57:56;;;;;;;23.60;9.50;;;;;;;9.31;100.00;102571.25;5004465;28;20121;-70
2023/05/25 06:00:21;;;;;;;23.40;9.90;;;;;;;9.36;100.00;102576.69;5005351;28;20056;-68
2023/05/25 06:02:47;;;;;;;25.10;9.95;;;;;;;9.45;100.00;102568.22;4987026;28;20053;-70
2023/05/25 06:05:12;;;;;;;24.30;9.57;;;;;;;9.52;100.00;102581.72;5002924;28;20022;-69
2023/05/25 06:07:37;;;;;;;22.58;9.77;;;;;;;9.57;100.00;102579.22;5004206;28;20160;-68
2023/05/25 06:10:06;;;;;;;24.77;10.25;;;;;;;9.61;100.00;102583.78;5003927;28;20051;-67
2023/05/25 06:12:32;;;;;;;24.30;10.00;;;;;;;9.66;100.00;102579.56;5004064;28;20388;-69
2023/05/25 06:14:57;;;;;;;22.42;9.38;;;;;;;9.74;100.00;102583.38;5003217;28;20060;-69
2023/05/25 06:17:23;;;;;;;24.48;9.63;;;;;;;9.80;100.00;102587.06;5003604;28;20034;-68
2023/05/25 06:19:49;;;;;;;24.33;9.60;;;;;;;9.88;100.00;102585.59;5004103;28;20044;-69
2023/05/25 06:22:15;;;;;;;24.13;9.88;;;;;;;9.94;100.00;102585.81;5005562;28;20546;-70
2023/05/25 06:24:40;;;;;;;24.95;10.27;;;;;;;9.97;100.00;102583.25;4983397;28;20085;-67
2023/05/25 06:27:05;;;;;;;23.85;9.60;;;;;;;10.01;100.00;102582.53;5001458;28;20077;-68
2023/05/25 06:29:31;;;;;;;23.17;9.50;;;;;;;10.09;100.00;102591.63;5003217;28;20105;-68
2023/05/25 06:31:56;;;;;;;24.83;9.40;;;;;;;10.12;100.00;102585.56;5003888;28;20049;-68
2023/05/25 06:34:22;;;;;;;23.00;8.77;;;;;;;10.19;100.00;102586.63;5002697;28;20034;-72
2023/05/25 06:36:47;;;;;;;23.52;9.07;;;;;;;10.31;100.00;102597.63;5004584;28;20026;-67
2023/05/25 06:39:12;;;;;;;22.15;8.70;;;;;;;10.36;100.00;102596.06;5003696;28;20038;-68
2023/05/25 06:41:39;;;;;;;23.10;8.30;;;;;;;10.48;100.00;102605.25;5002805;28;20110;-68
2023/05/25 06:44:05;;;;;;;20.92;8.70;;;;;;;10.58;100.00;102602.94;5002802;28;20373;-67
2023/05/25 06:46:31;;;;;;;23.35;8.60;;;;;;;10.82;100.00;102608.13;5003103;28;20030;-70
2023/05/25 06:48:58;;;;;;;21.92;8.60;;;;;;;11.15;100.00;102619.69;5002717;28;20032;-70
2023/05/25 06:51:26;;;;;;;23.85;8.10;;;;;;;11.27;100.00;102616.50;4999380;28;20022;-68
2023/05/25 06:53:51;;;;;;;25.08;8.80;;;;;;;11.31;100.00;102618.41;5001713;28;20084;-67
2023/05/25 06:56:17;;;;;;;22.42;8.43;;;;;;;11.40;100.00;102613.41;5002835;28;20057;-66
2023/05/25 06:58:42;;;;;;;22.85;8.90;;;;;;;11.50;100.00;102615.47;5004167;28;20488;-67
2023/05/25 07:01:08;;;;;;;21.90;8.30;;;;;;;11.74;100.00;102608.16;5004187;28;20057;-66
2023/05/25 07:03:33;;;;;;;22.27;8.13;;;;;;;11.83;100.00;102600.44;5002837;28;20038;-66
2023/05/25 07:05:58;;;;;;;26.17;9.00;;;;;;;11.86;100.00;102604.06;5001953;28;20474;-65
2023/05/25 07:08:24;;;;;;;21.15;8.38;;;;;;;11.94;100.00;102603.41;5002819;28;20038;-66
2023/05/25 07:10:49;;;;;;;21.23;8.52;;;;;;;11.94;100.00;102608.72;5002997;28;20117;-66
2023/05/25 07:13:14;;;;;;;20.63;8.15;;;;;;;12.05;100.00;102612.53;5003271;28;20036;-66
2023/05/25 07:15:40;;;;;;;22.33;7.70;;;;;;;12.24;100.00;102613.03;5000364;28;20045;-66
2023/05/25 07:18:05;;;;;;;21.38;7.93;;;;;;;12.48;100.00;102618.03;4977758;28;20408;-66
2023/05/25 07:20:32;;;;;;;21.20;7.80;;;;;;;12.42;100.00;102615.25;4999096;28;20023;-67
2023/05/25 07:22:58;;;;;;;21.17;7.85;;;;;;;12.24;100.00;102613.03;4999632;28;20400;-66
2023/05/25 07:25:23;;;;;;;22.17;8.15;;;;;;;12.25;100.00;102622.78;4996937;28;20057;-65
2023/05/25 07:27:53;;;;;;;22.63;8.20;;;;;;;12.37;100.00;102623.09;5002981;28;20034;-66
2023/05/25 07:30:19;;;;;;;22.30;8.15;;;;;;;12.45;100.00;102621.53;5004367;28;20029;-66
2023/05/25 07:32:45;;;;;;;23.73;8.40;;;;;;;12.51;100.00;102621.69;5001705;28;20397;-66
2023/05/25 07:35:10;;;;;;;22.67;8.05;;;;;;;12.66;100.00;102620.25;5002962;28;20037;-67
2023/05/25 07:37:35;;;;;;;21.85;7.60;;;;;;;12.84;100.00;102622.44;5002176;28;20038;-67
2023/05/25 07:40:01;;;;;;;23.48;8.07;;;;;;;12.89;100.00;102624.34;5000955;28;20595;-66
2023/05/25 07:42:32;;;;;;;21.83;8.05;;;;;;;12.82;100.00;102626.81;5000286;28;20030;-67
2023/05/25 07:44:58;;;;;;;22.03;8.10;;;;;;;12.84;100.00;102626.00;4985588;28;20030;-66
2023/05/25 07:47:23;;;;;;;22.33;7.50;;;;;;;12.89;100.00;102624.34;5002657;28;20038;-66
2023/05/25 07:49:49;;;;;;;22.48;7.50;;;;;;;12.84;100.00;102625.09;5002470;28;20163;-69
2023/05/25 07:52:14;;;;;;;20.92;7.35;;;;;;;12.84;100.00;102636.63;5003180;28;20069;-69
2023/05/25 07:54:39;;;;;;;22.35;7.53;;;;;;;13.06;100.00;102629.13;5001478;28;20034;-70
2023/05/25 07:57:06;;;;;;;22.42;7.75;;;;;;;13.11;100.00;102635.44;5001607;28;20030;-70
2023/05/25 07:59:31;;;;;;;21.38;7.57;;;;;;;13.22;100.00;102631.28;5001707;28;20038;-71
2023/05/25 08:01:56;;;;;;;20.30;7.13;;;;;;;13.30;100.00;102635.88;5001618;28;20073;-70
2023/05/25 08:04:22;;;;;;;22.15;7.13;;;;;;;13.38;100.00;102624.56;5003146;28;20034;-69
2023/05/25 08:06:47;;;;;;;20.98;7.38;;;;;;;13.42;100.00;102620.19;5003814;28;20077;-69
2023/05/25 08:09:13;;;;;;;22.27;7.05;;;;;;;13.55;100.00;102632.88;5001488;28;20096;-70
2023/05/25 08:11:38;;;;;;;21.35;6.80;;;;;;;13.71;100.00;102633.19;5002745;28;20530;-71
2023/05/25 08:14:04;;;;;;;21.58;7.15;;;;;;;13.83;100.00;102644.03;5003195;28;20025;-71
2023/05/25 08:16:29;;;;;;;20.88;7.18;;;;;;;13.92;100.00;102635.34;5000197;28;20112;-72
2023/05/25 08:18:55;;;;;;;20.90;7.13;;;;;;;14.04;100.00;102637.38;5002033;28;20130;-70
2023/05/25 08:21:20;;;;;;;22.00;6.90;;;;;;;14.27;100.00;102646.66;5001353;28;20034;-70
2023/05/25 08:23:46;;;;;;;22.40;6.97;;;;;;;14.47;100.00;102638.09;5001834;28;20038;-71
2023/05/25 08:26:12;;;;;;;21.55;7.00;;;;;;;14.71;100.00;102645.63;5002109;28;20038;-69
2023/05/25 08:28:37;;;;;;;20.67;6.20;;;;;;;14.82;100.00;102640.44;5003817;28;20030;-72
2023/05/25 08:31:03;;;;;;;20.48;6.30;;;;;;;14.87;100.00;102648.50;4986589;28;20019;-70
2023/05/25 08:33:29;;;;;;;20.00;6.10;;;;;;;15.05;100.00;102646.13;5005557;28;20050;-69
2023/05/25 08:35:55;;;;;;;21.80;5.95;;;;;;;15.32;100.00;102640.28;5006639;28;20026;-70
2023/05/25 08:38:24;;;;;;;20.10;5.78;;;;;;;15.66;100.00;102639.81;5005910;28;20038;-70
2023/05/25 08:41:06;;;;;;;18.60;5.70;;;;;;;16.26;100.00;102644.91;5006240;28;20031;-70
2023/05/25 08:43:32;;;;;;;19.08;5.85;;;;;;;16.80;100.00;102642.66;5005501;28;20026;-71
2023/05/25 08:46:03;;;;;;;19.77;5.90;;;;;;;17.35;100.00;102653.69;5002940;28;20473;-70
2023/05/25 08:48:31;;;;;;;19.77;5.70;;;;;;;17.25;90.54;102646.53;5006254;28;20108;-69
2023/05/25 08:51:03;;;;;;;20.42;5.80;;;;;;;16.85;87.50;102652.50;5006135;28;20108;-69
2023/05/25 08:53:33;;;;;;;20.33;5.60;;;;;;;16.53;88.31;102649.59;5006235;28;20061;-70
2023/05/25 08:55:59;;;;;;;19.90;5.80;;;;;;;16.69;92.38;102648.81;5005000;28;20389;-68
2023/05/25 08:58:39;;;;;;;19.92;5.47;;;;;;;16.71;88.75;102649.72;5005335;28;20116;-67
2023/05/25 09:01:07;;;;;;;18.92;5.50;;;;;;;16.53;86.84;102660.28;5005559;28;20056;-70
2023/05/25 09:03:33;;;;;;;18.50;5.50;;;;;;;16.50;86.46;102661.13;5004757;28;20482;-67
2023/05/25 09:05:59;;;;;;;19.88;5.47;;;;;;;16.31;89.18;102660.06;5004301;28;20042;-66
2023/05/25 09:08:26;;;;;;;19.83;5.45;;;;;;;16.21;87.72;102653.75;5004424;28;20031;-65
2023/05/25 09:10:52;;;;;;;19.73;5.32;;;;;;;16.12;89.19;102661.69;5004273;28;20034;-67
2023/05/25 09:13:18;;;;;;;21.70;5.60;;;;;;;16.13;92.57;102659.91;5004298;28;20051;-66
2023/05/25 09:15:44;;;;;;;20.63;5.60;;;;;;;16.18;87.31;102659.06;5005234;28;20057;-66
2023/05/25 09:18:09;;;;;;;19.25;5.32;;;;;;;16.44;93.85;102655.75;5003713;28;20046;-67
2023/05/25 09:20:34;;;;;;;18.00;5.30;;;;;;;16.77;92.30;102656.00;5004972;28;20435;-68
2023/05/25 09:23:01;;;;;;;26.98;5.95;;;;;;;16.72;83.82;102656.84;5006284;28;20107;-70
2023/05/25 09:25:27;;;;;;;20.83;5.72;;;;;;;16.62;85.85;102660.34;4982936;28;20473;-68
2023/05/25 09:27:55;;;;;;;21.35;5.70;;;;;;;16.52;86.31;102655.81;5004945;28;20034;-67
2023/05/25 09:30:20;;;;;;;19.50;5.50;;;;;;;16.37;89.03;102662.78;5006520;28;20038;-68
2023/05/25 09:32:46;;;;;;;19.55;5.20;;;;;;;16.25;88.44;102667.13;5003872;28;20037;-67
2023/05/25 09:35:12;;;;;;;20.73;5.10;;;;;;;16.09;85.42;102660.72;5003474;28;20488;-68
2023/05/25 09:37:39;;;;;;;19.60;5.45;;;;;;;16.17;89.60;102669.72;5005437;28;20030;-67
2023/05/25 09:40:05;;;;;;;18.58;5.28;;;;;;;16.48;88.00;102670.00;5004441;28;20397;-68
2023/05/25 09:42:32;;;;;;;20.85;5.18;;;;;;;16.67;86.71;102671.03;5005225;28;20038;-67
2023/05/25 09:44:58;;;;;;;19.88;5.28;;;;;;;16.93;83.58;102673.06;5004110;28;20484;-68
2023/05/25 09:47:25;;;;;;;19.15;4.97;;;;;;;17.00;78.55;102667.75;5004485;28;20037;-67
2023/05/25 09:49:51;;;;;;;19.45;4.78;;;;;;;16.90;79.22;102665.91;5004397;28;20041;-68
2023/05/25 09:52:17;;;;;;;18.45;4.57;;;;;;;16.76;79.93;102673.81;5004659;28;20022;-69
2023/05/25 09:54:52;;;;;;;19.30;4.50;;;;;;;16.71;78.80;102665.72;5001914;28;20030;-69
2023/05/25 09:57:19;;;;;;;18.92;5.03;;;;;;;16.83;76.98;102669.38;5004565;28;20022;-69
2023/05/25 09:59:46;;;;;;;18.88;4.63;;;;;;;16.85;76.45;102673.88;5004881;28;20029;-69
2023/05/25 10:02:12;;;;;;;19.83;4.70;;;;;;;16.93;75.35;102681.06;5004727;28;20108;-67
2023/05/25 10:04:38;;;;;;;19.73;4.72;;;;;;;16.95;75.71;102682.88;5002375;28;20089;-70
2023/05/25 10:07:04;;;;;;;18.95;5.25;;;;;;;17.12;76.68;102677.63;5003800;28;20027;-68
2023/05/25 10:09:30;;;;;;;20.63;5.40;;;;;;;17.07;76.72;102682.06;5004215;28;20503;-69
2023/05/25 10:11:58;;;;;;;20.13;5.53;;;;;;;17.20;79.14;102675.91;5004384;28;20034;-67
2023/05/25 10:14:28;;;;;;;21.67;5.32;;;;;;;17.48;77.42;102685.84;5004895;28;20362;-68
2023/05/25 10:16:56;;;;;;;20.58;4.97;;;;;;;17.70;72.31;102682.34;5003377;28;20031;-68
2023/05/25 10:19:51;;;;;;;20.58;4.97;;;;;;;17.86;72.80;102679.75;5002422;28;20054;-67
2023/05/25 10:22:25;;;;;;;20.35;5.28;;;;;;;17.74;71.50;102681.50;4996723;28;20045;-69
2023/05/25 10:24:50;;;;;;;20.13;5.10;;;;;;;17.70;67.95;102682.34;5004054;28;20030;-67
2023/05/25 10:27:22;;;;;;;22.08;5.57;;;;;;;17.67;70.61;102682.34;5004449;28;20037;-67
2023/05/25 10:29:48;;;;;;;;;;;;;;;18.21;70.80;102678.97;5004314;28;20496;-67
2023/05/25 10:32:17;;;;;;;18.95;5.13;;;;;;;18.15;67.42;102685.19;5003706;28;19914;-67
2023/05/25 10:34:43;;;;;;;19.15;4.80;;;;;;;18.47;65.49;102679.88;5001798;28;20547;-68
2023/05/25 10:37:10;;;;;;;21.38;5.07;;;;;;;18.51;64.19;102683.47;5004696;28;20032;-67
2023/05/25 10:39:35;;;;;;;20.35;5.00;;;;;;;18.35;64.75;102682.56;5004091;28;20041;-67
2023/05/25 10:42:02;;;;;;;20.27;4.72;;;;;;;18.01;64.95;102692.31;4986150;28;20026;-69
2023/05/25 10:44:29;;;;;;;19.92;4.50;;;;;;;17.85;66.10;102689.53;5001765;28;20587;-68
2023/05/25 10:46:55;;;;;;;19.77;4.85;;;;;;;17.98;66.34;102681.59;5002483;28;20065;-69
2023/05/25 10:49:50;;;;;;;17.30;4.45;;;;;;;18.41;64.05;102684.34;5003518;28;20047;-69
2023/05/25 10:52:18;;;;;;;18.00;4.50;;;;;;;19.03;59.97;102671.81;5004015;28;20034;-69
2023/05/25 10:54:45;;;;;;;18.45;4.70;;;;;;;19.84;58.44;102669.78;4999976;28;20057;-69
2023/05/25 10:57:16;;;;;;;18.48;4.47;;;;;;;20.25;55.08;102675.78;5002861;28;20028;-69
2023/05/25 10:59:44;;;;;;;14.50;4.18;;;;;;;19.73;57.32;102680.53;5003266;28;20040;-67
2023/05/25 11:02:10;;;;;;;18.02;4.50;;;;;;;19.64;57.32;102686.84;5003376;28;20055;-67
2023/05/25 11:04:36;;;;;;;19.67;4.80;;;;;;;19.72;56.22;102688.56;5004019;28;20054;-68
2023/05/25 11:07:01;;;;;;;18.08;4.32;;;;;;;20.82;55.44;102681.56;5002044;28;20069;-69
2023/05/25 11:09:31;;;;;;;19.15;4.50;;;;;;;23.40;46.82;102687.72;5003184;28;20113;-68
2023/05/25 11:11:58;;;;;;;18.42;4.60;;;;;;;24.99;41.63;102678.56;5002697;28;20125;-70